1884 Depression NOT_NAMED (1884200N21089)


IBTrACS version v04r00. Visit IBTrACS website for data access.
Please direct all questions to the IBTrACS Q and A forum

Storm track - Intensity - Wind Radii - Intensity Data - Source Data - All data

Summary Information

Storm ID 1884200N21089
Start Jul 18 00Z
Landfall Jul 21 03Z
Max Intensity 30 kt (Jul 18 03Z)
End Jul 27 03Z
ATCF IDs
Track status Best track data.

Storm track plot

Map of storm track

Intensity plots

Map of storm track

Radial wind information

No radial wind information for this storm


Position and Intensity Table

BASIN ISO_TIME_________ NATURE LAT LON DS824 WIND
degrees north degrees east kts
NI 1884-07-18 00:00:00 TS 20.50 88.70 30
NI 03:00:00 TS 20.53 88.67 30
NI 06:00:00 TS 20.58 88.62 30
NI 09:00:00 TS 20.63 88.57 30
NI 12:00:00 TS 20.68 88.53 30
NI 15:00:00 TS 20.73 88.48 30
NI 18:00:00 TS 20.77 88.42 30
NI 21:00:00 TS 20.78 88.34 30
NI 1884-07-19 00:00:00 TS 20.79 88.24 30
NI 03:00:00 TS 20.80 88.15 30
NI 06:00:00 TS 20.81 88.05 30
NI 09:00:00 TS 20.84 87.94 30
NI 12:00:00 TS 20.88 87.84 30
NI 15:00:00 TS 20.92 87.77 30
NI 18:00:00 TS 20.97 87.72 30
NI 21:00:00 TS 21.03 87.67 30
NI 1884-07-20 00:00:00 TS 21.08 87.62 30
NI 03:00:00 TS 21.10 87.55 30
NI 06:00:00 TS 21.12 87.47 30
NI 09:00:00 TS 21.15 87.40 30
NI 12:00:00 TS 21.19 87.34 30
NI 15:00:00 TS 21.20 87.25 30
NI 18:00:00 TS 21.21 87.16 30
NI 21:00:00 TS 21.25 87.10 30
NI 1884-07-21 00:00:00 TS 21.29 87.04 30
NI 03:00:00 TS 21.30 86.95 30
NI 06:00:00 TS 21.31 86.86 30
NI 09:00:00 TS 21.35 86.79 30
NI 12:00:00 TS 21.39 86.73 30
NI 15:00:00 TS 21.40 86.67 30
NI 18:00:00 TS 21.40 86.65 30
NI 21:00:00 TS 21.42 86.64 30
NI 1884-07-22 00:00:00 TS 21.47 86.57 30
NI 03:00:00 TS 21.57 86.35 30
NI 06:00:00 TS 21.70 86.01 30
NI 09:00:00 TS 21.83 85.65 30
NI 12:00:00 TS 21.94 85.29 30
NI 15:00:00 TS 22.03 84.97 30
NI 18:00:00 TS 22.09 84.70 30
NI 21:00:00 TS 22.14 84.42 30
NI 1884-07-23 00:00:00 TS 22.18 84.13 30
NI 03:00:00 TS 22.23 83.85 30
NI 06:00:00 TS 22.27 83.55 30
NI 09:00:00 TS 22.28 83.24 30
NI 12:00:00 TS 22.29 82.94 30
NI 15:00:00 TS 22.30 82.67 30
NI 18:00:00 TS 22.31 82.42 30
NI 21:00:00 TS 22.34 82.19 30
NI 1884-07-24 00:00:00 TS 22.38 82.00 30
NI 03:00:00 TS 22.42 81.82 30
NI 06:00:00 TS 22.48 81.66 30
NI 09:00:00 TS 22.57 81.51 30
NI 12:00:00 TS 22.66 81.37 30
NI 15:00:00 TS 22.72 81.22 30
NI 18:00:00 TS 22.77 81.08 30
NI 21:00:00 TS 22.84 80.95 30
NI 1884-07-25 00:00:00 TS 22.94 80.79 30
NI 03:00:00 TS 23.09 80.56 30
NI 06:00:00 TS 23.30 80.28 30
NI 09:00:00 TS 23.56 80.01 30
NI 12:00:00 TS 23.86 79.74 30
NI 15:00:00 TS 24.15 79.47 30
NI 18:00:00 TS 24.44 79.21 30
NI 21:00:00 TS 24.73 78.95 30
NI 1884-07-26 00:00:00 TS 24.98 78.71 30
NI 03:00:00 TS 25.18 78.52 30
NI 06:00:00 TS 25.34 78.36 30
NI 09:00:00 TS 25.49 78.22 30
NI 12:00:00 TS 25.63 78.07 30
NI 15:00:00 TS 25.77 77.90 30
NI 18:00:00 TS 25.92 77.74 30
NI 21:00:00 TS 26.09 77.58 30
NI 1884-07-27 00:00:00 TS 26.27 77.43 30
NI 03:00:00 NR 26.40 77.30

Source Information

Agency Information
USA
TOKYO
CMA
HKO
NEWDELHI
REUNION
BOM
NADI
WELLINGTON
DS824 n_ind.dat:77:NOT NAMED
TD9636 cons_worldwide_trop_cyclone_18710101-19891231-004:Line=719
TD9635
NEUMANN
MLC

All available IBTrACS Data

SEASON BASIN SUBBASIN ISO_TIME_________ NATURE LAT LON DIST2LAND LANDFALL IFLAG USA SSHS DS824 LAT DS824 LON DS824 STAGE DS824 WIND TD9636 LAT TD9636 LON TD9636 STAGE STORM SPEED STORM DIR
Year degrees north degrees east km km 1 degrees north degrees east kts degrees north degrees east kts degrees
1884 NI BB 1884-07-18 00:00:00 TS 20.50 88.70 124 124 _________O____ -1 20.50 88.70 TC 30 1 307
1884 NI BB 03:00:00 TS 20.53 88.67 124 112 _________PO___ -1 20.55 88.65 TC 30 20.50 88.70 1 1 322
1884 NI BB 06:00:00 TS 20.58 88.62 112 112 _________OP___ -1 20.60 88.60 TC 30 20.56 88.65 1 1 319
1884 NI BB 09:00:00 TS 20.63 88.57 112 100 _________PP___ -1 20.65 88.55 TC 30 20.61 88.61 1 1 318
1884 NI BB 12:00:00 TS 20.68 88.53 100 100 _________OP___ -1 20.70 88.50 TC 30 20.66 88.56 1 1 317
1884 NI BB 15:00:00 TS 20.73 88.48 100 89 _________PO___ -1 20.76 88.46 TC 30 20.70 88.50 1 1 309
1884 NI BB 18:00:00 TS 20.77 88.42 89 89 _________OP___ -1 20.80 88.40 TC 30 20.73 88.44 1 1 292
1884 NI BB 21:00:00 TS 20.78 88.34 89 89 _________PP___ -1 20.81 88.31 TC 30 20.76 88.36 1 2 278
1884 NI BB 1884-07-19 00:00:00 TS 20.79 88.24 89 89 _________OP___ -1 20.80 88.20 TC 30 20.78 88.29 1 2 275
1884 NI BB 03:00:00 TS 20.80 88.15 89 90 _________PO___ -1 20.79 88.10 TC 30 20.80 88.20 1 2 277
1884 NI BB 06:00:00 TS 20.81 88.05 91 91 _________OP___ -1 20.80 88.00 TC 30 20.82 88.10 1 2 284
1884 NI BB 09:00:00 TS 20.84 87.94 93 83 _________PP___ -1 20.84 87.89 TC 30 20.84 87.99 1 2 291
1884 NI BB 12:00:00 TS 20.88 87.84 83 83 _________OP___ -1 20.90 87.80 TC 30 20.87 87.89 1 2 298
1884 NI BB 15:00:00 TS 20.92 87.77 83 73 _________PO___ -1 20.95 87.74 TC 30 20.90 87.80 1 1 307
1884 NI BB 18:00:00 TS 20.97 87.72 73 73 _________OP___ -1 21.00 87.70 TC 30 20.95 87.74 1 1 319
1884 NI BB 21:00:00 TS 21.03 87.67 73 59 _________PP___ -1 21.06 87.66 TC 30 21.00 87.69 1 1 319
1884 NI BB 1884-07-20 00:00:00 TS 21.08 87.62 59 59 _________OP___ -1 21.10 87.60 TC 30 21.05 87.65 1 1 301
1884 NI BB 03:00:00 TS 21.10 87.55 59 56 _________PO___ -1 21.10 87.50 TC 30 21.10 87.60 1 2 285
1884 NI BB 06:00:00 TS 21.12 87.47 56 44 _________OP___ -1 21.10 87.40 TC 30 21.13 87.53 1 1 291
1884 NI BB 09:00:00 TS 21.15 87.40 44 38 _________PP___ -1 21.15 87.35 TC 30 21.16 87.46 1 1 302
1884 NI BB 12:00:00 TS 21.19 87.34 38 38 _________OP___ -1 21.20 87.30 TC 30 21.18 87.38 1 2 288
1884 NI BB 15:00:00 TS 21.20 87.25 38 30 _________PO___ -1 21.20 87.20 TC 30 21.20 87.30 1 2 278
1884 NI BB 18:00:00 TS 21.21 87.16 30 23 _________OP___ -1 21.20 87.10 TC 30 21.22 87.22 1 1 290
1884 NI BB 21:00:00 TS 21.25 87.10 23 10 _________PP___ -1 21.25 87.05 TC 30 21.25 87.15 1 1 302
1884 NI BB 1884-07-21 00:00:00 TS 21.29 87.04 10 10 _________OP___ -1 21.30 87.00 TC 30 21.27 87.07 1 1 290
1884 NI BB 03:00:00 TS 21.30 86.95 0 0 _________PO___ -1 21.30 86.90 TC 30 21.30 87.00 1 2 279
1884 NI BB 06:00:00 TS 21.31 86.86 0 0 _________OP___ -1 21.30 86.80 TC 30 21.32 86.92 1 2 288
1884 NI BB 09:00:00 TS 21.35 86.79 0 0 _________PP___ -1 21.35 86.74 TC 30 21.35 86.84 1 1 302
1884 NI BB 12:00:00 TS 21.39 86.73 0 0 _________OP___ -1 21.40 86.70 TC 30 21.38 86.77 1 1 294
1884 NI BB 15:00:00 TS 21.40 86.67 0 0 _________PO___ -1 21.40 86.65 TC 30 21.40 86.70 1 1 282
1884 NI BB 18:00:00 TS 21.40 86.65 0 0 _________OP___ -1 21.40 86.60 TC 30 21.41 86.69 1 0 306
1884 NI BB 21:00:00 TS 21.42 86.64 0 0 _________PP___ -1 21.43 86.59 TC 30 21.42 86.68 1 1 311
1884 NI BB 1884-07-22 00:00:00 TS 21.47 86.57 0 0 _________OP___ -1 21.50 86.50 TC 30 21.45 86.63 1 3 299
1884 NI BB 03:00:00 TS 21.57 86.35 0 0 _________PO___ -1 21.64 86.20 TC 30 21.50 86.50 1 6 294
1884 NI BB 06:00:00 TS 21.70 86.01 0 0 _________OP___ -1 21.80 85.80 TC 30 21.61 86.22 1 7 292
1884 NI BB 09:00:00 TS 21.83 85.65 0 0 _________PP___ -1 21.92 85.43 TC 30 21.74 85.87 1 7 289
1884 NI BB 12:00:00 TS 21.94 85.29 0 0 _________OP___ -1 22.00 85.10 TC 30 21.88 85.48 1 7 288
1884 NI BB 15:00:00 TS 22.03 84.97 0 0 _________PO___ -1 22.06 84.84 TC 30 22.00 85.10 1 6 285
1884 NI BB 18:00:00 TS 22.09 84.70 0 0 _________OP___ -1 22.10 84.60 TC 30 22.08 84.81 1 5 282
1884 NI BB 21:00:00 TS 22.14 84.42 0 0 _________PP___ -1 22.15 84.31 TC 30 22.13 84.53 1 5 280
1884 NI BB 1884-07-23 00:00:00 TS 22.18 84.13 0 0 _________OP___ -1 22.20 84.00 TC 30 22.17 84.27 1 5 280
1884 NI BB 03:00:00 TS 22.23 83.85 0 0 _________PO___ -1 22.26 83.70 TC 30 22.20 84.00 1 6 279
1884 NI BB 06:00:00 TS 22.27 83.55 0 0 _________OP___ -1 22.30 83.40 TC 30 22.23 83.69 1 6 275
1884 NI BB 09:00:00 TS 22.28 83.24 0 0 _________PP___ -1 22.31 83.09 TC 30 22.26 83.38 1 6 272
1884 NI BB 12:00:00 TS 22.29 82.94 0 0 _________OP___ -1 22.30 82.80 TC 30 22.28 83.08 1 5 271
1884 NI BB 15:00:00 TS 22.30 82.67 0 0 _________PO___ -1 22.29 82.53 TC 30 22.30 82.80 1 5 272
1884 NI BB 18:00:00 TS 22.31 82.42 0 0 _________OP___ -1 22.30 82.30 TC 30 22.32 82.54 1 4 276
1884 NI BB 21:00:00 TS 22.34 82.19 0 0 _________PP___ -1 22.34 82.09 TC 30 22.33 82.30 1 4 280
1884 NI BB 1884-07-24 00:00:00 TS 22.38 82.00 0 0 _________OP___ -1 22.40 81.90 TC 30 22.36 82.09 1 4 283
1884 NI BB 03:00:00 TS 22.42 81.82 0 0 _________PO___ -1 22.44 81.74 TC 30 22.40 81.90 1 3 288
1884 NI BB 06:00:00 TS 22.48 81.66 0 0 _________OP___ -1 22.50 81.60 TC 30 22.46 81.73 1 3 297
1884 NI BB 09:00:00 TS 22.57 81.51 0 0 _________PP___ -1 22.60 81.45 TC 30 22.53 81.58 1 3 303
1884 NI BB 12:00:00 TS 22.66 81.37 0 0 _________OP___ -1 22.70 81.30 TC 30 22.62 81.44 1 3 301
1884 NI BB 15:00:00 TS 22.72 81.22 0 0 _________PO___ -1 22.75 81.15 TC 30 22.70 81.30 1 3 294
1884 NI BB 18:00:00 TS 22.77 81.08 0 0 _________OP___ -1 22.80 81.00 TC 30 22.75 81.17 1 3 294
1884 NI BB 21:00:00 TS 22.84 80.95 0 0 _________PP___ -1 22.88 80.87 TC 30 22.80 81.04 1 3 301
1884 NI BB 1884-07-25 00:00:00 TS 22.94 80.79 0 0 _________OP___ -1 23.00 80.70 TC 30 22.87 80.89 1 4 304
1884 NI BB 03:00:00 TS 23.09 80.56 0 0 _________PO___ -1 23.17 80.42 TC 30 23.00 80.70 1 6 307
1884 NI BB 06:00:00 TS 23.30 80.28 0 0 _________OP___ -1 23.40 80.10 TC 30 23.20 80.46 1 7 314
1884 NI BB 09:00:00 TS 23.56 80.01 0 0 _________PP___ -1 23.68 79.84 TC 30 23.44 80.18 1 7 319
1884 NI BB 12:00:00 TS 23.86 79.74 0 0 _________OP___ -1 24.00 79.60 TC 30 23.71 79.89 1 8 320
1884 NI BB 15:00:00 TS 24.15 79.47 0 0 _________PO___ -1 24.31 79.35 TC 30 24.00 79.60 1 8 320
1884 NI BB 18:00:00 TS 24.44 79.21 0 0 _________OP___ -1 24.60 79.10 TC 30 24.29 79.33 1 7 320
1884 NI BB 21:00:00 TS 24.73 78.95 0 0 _________PP___ -1 24.87 78.84 TC 30 24.58 79.06 1 7 319
1884 NI BB 1884-07-26 00:00:00 TS 24.98 78.71 0 0 _________OP___ -1 25.10 78.60 TC 30 24.86 78.82 1 6 319
1884 NI BB 03:00:00 TS 25.18 78.52 0 0 _________PO___ -1 25.26 78.43 TC 30 25.10 78.60 1 5 319
1884 NI BB 06:00:00 TS 25.34 78.36 0 0 _________OP___ -1 25.40 78.30 TC 30 25.28 78.42 1 4 319
1884 NI BB 09:00:00 TS 25.49 78.22 0 0 _________PP___ -1 25.55 78.16 TC 30 25.43 78.28 1 4 318
1884 NI BB 12:00:00 TS 25.63 78.07 0 0 _________OP___ -1 25.70 78.00 TC 30 25.56 78.14 1 4 315
1884 NI AS 15:00:00 TS 25.77 77.90 0 0 _________PO___ -1 25.84 77.80 TC 30 25.70 78.00 1 4 314
1884 NI AS 18:00:00 TS 25.92 77.74 0 0 _________OP___ -1 26.00 77.60 TC 30 25.86 77.84 1 4 318
1884 NI AS 21:00:00 TS 26.09 77.58 0 0 _________PP___ -1 26.19 77.44 TC 30 26.03 77.67 1 5 322
1884 NI AS 1884-07-27 00:00:00 TS 26.27 77.43 0 0 _________OP___ -1 26.40 77.30 TC 30 26.21 77.49 1 4 321
1884 NI AS 03:00:00 NR 26.40 77.30 0 __________O___ -1 TC 26.40 77.30 1 3 319